createdAt,value
2023-02-14T00:00:02.558Z,100.00
2023-02-14T00:02:36.245Z,100.00
2023-02-14T00:05:03.940Z,100.00
2023-02-14T00:07:32.346Z,100.00
2023-02-14T00:10:00.000Z,100.00
2023-02-14T00:12:29.106Z,100.00
2023-02-14T00:15:14.288Z,100.00
2023-02-14T00:17:41.882Z,100.00
2023-02-14T00:20:10.153Z,100.00
2023-02-14T00:22:37.731Z,100.00
2023-02-14T00:25:05.813Z,100.00
2023-02-14T00:27:34.754Z,100.00
2023-02-14T00:30:03.344Z,100.00
2023-02-14T00:32:31.567Z,100.00
2023-02-14T00:34:59.242Z,100.00
2023-02-14T00:37:27.027Z,100.00
2023-02-14T00:39:54.987Z,100.00
2023-02-14T00:42:22.605Z,100.00
2023-02-14T00:44:51.606Z,100.00
2023-02-14T00:47:20.981Z,100.00
2023-02-14T00:49:48.749Z,100.00
2023-02-14T00:52:16.539Z,100.00
2023-02-14T00:54:44.178Z,100.00
2023-02-14T00:57:11.817Z,100.00
2023-02-14T00:59:39.435Z,100.00
2023-02-14T01:02:08.431Z,100.00
2023-02-14T01:04:36.264Z,100.00
2023-02-14T01:07:03.908Z,100.00
2023-02-14T01:09:31.782Z,100.00
2023-02-14T01:12:02.884Z,100.00
2023-02-14T01:14:30.583Z,100.00
2023-02-14T01:16:58.182Z,100.00
2023-02-14T01:19:27.207Z,100.00
2023-02-14T01:21:54.798Z,100.00
2023-02-14T01:24:25.116Z,100.00
2023-02-14T01:26:52.762Z,100.00
2023-02-14T01:29:20.439Z,100.00
2023-02-14T01:31:48.970Z,100.00
2023-02-14T01:34:16.620Z,100.00
2023-02-14T01:36:46.607Z,100.00
2023-02-14T01:39:15.876Z,100.00
2023-02-14T01:41:48.922Z,100.00
2023-02-14T01:44:58.237Z,100.00
2023-02-14T01:47:28.143Z,100.00
2023-02-14T01:50:00.600Z,100.00
2023-02-14T01:52:34.234Z,100.00
2023-02-14T01:55:05.862Z,100.00
2023-02-14T01:57:38.015Z,100.00
2023-02-14T02:00:26.359Z,100.00
2023-02-14T02:02:54.474Z,100.00
2023-02-14T02:05:23.866Z,100.00
2023-02-14T02:07:56.225Z,100.00
2023-02-14T02:10:24.257Z,100.00
2023-02-14T02:12:53.449Z,100.00
2023-02-14T02:15:25.061Z,100.00
2023-02-14T02:18:03.145Z,100.00
2023-02-14T02:20:55.969Z,100.00
2023-02-14T02:23:54.050Z,100.00
2023-02-14T02:27:08.828Z,100.00
2023-02-14T02:30:16.192Z,100.00
2023-02-14T02:33:15.435Z,100.00
2023-02-14T02:35:55.434Z,100.00
2023-02-14T02:38:38.051Z,100.00
2023-02-14T02:41:17.005Z,100.00
2023-02-14T02:43:53.848Z,100.00
2023-02-14T02:46:43.076Z,100.00
2023-02-14T02:49:38.369Z,100.00
2023-02-14T02:52:30.414Z,100.00
2023-02-14T02:55:05.530Z,100.00
2023-02-14T02:57:37.694Z,100.00
2023-02-14T03:00:08.625Z,100.00
2023-02-14T03:02:54.704Z,100.00
2023-02-14T03:05:23.304Z,100.00
2023-02-14T03:07:53.688Z,100.00
2023-02-14T03:10:23.771Z,100.00
2023-02-14T03:13:18.030Z,100.00
2023-02-14T03:16:36.525Z,100.00
2023-02-14T03:19:36.209Z,100.00
2023-02-14T03:22:09.584Z,100.00
2023-02-14T03:24:47.733Z,100.00
2023-02-14T03:27:21.318Z,100.00
2023-02-14T03:29:58.871Z,100.00
2023-02-14T03:32:35.424Z,100.00
2023-02-14T03:35:11.789Z,100.00
2023-02-14T03:37:47.938Z,100.00
2023-02-14T03:40:21.885Z,100.00
2023-02-14T03:42:54.314Z,100.00
2023-02-14T03:45:28.780Z,100.00
2023-02-14T03:48:00.246Z,100.00
2023-02-14T03:50:29.504Z,100.00
2023-02-14T03:53:00.329Z,100.00
2023-02-14T03:55:37.086Z,100.00
2023-02-14T03:58:10.592Z,100.00
2023-02-14T04:00:42.063Z,100.00
2023-02-14T04:03:12.830Z,100.00
2023-02-14T04:05:44.437Z,100.00
2023-02-14T04:08:12.507Z,100.00
2023-02-14T04:10:43.234Z,100.00
2023-02-14T04:13:11.002Z,100.00
2023-02-14T04:15:38.624Z,100.00
2023-02-14T04:18:23.792Z,100.00
2023-02-14T04:20:51.413Z,100.00
2023-02-14T04:23:19.052Z,100.00
2023-02-14T04:25:48.215Z,100.00
2023-02-14T04:28:15.886Z,100.00
2023-02-14T04:30:43.592Z,100.00
2023-02-14T04:33:11.602Z,100.00
2023-02-14T04:35:39.231Z,100.00
2023-02-14T04:38:07.387Z,100.00
2023-02-14T04:40:35.044Z,100.00
2023-02-14T04:43:04.672Z,100.00
2023-02-14T04:45:32.270Z,100.00
2023-02-14T04:48:02.319Z,100.00
2023-02-14T04:50:29.901Z,100.00
2023-02-14T04:52:57.665Z,100.00
2023-02-14T04:55:25.414Z,100.00
2023-02-14T04:57:53.381Z,100.00
2023-02-14T05:00:22.783Z,100.00
2023-02-14T05:02:50.564Z,100.00
2023-02-14T05:05:18.214Z,100.00
2023-02-14T05:07:47.805Z,100.00
2023-02-14T05:10:15.729Z,100.00
2023-02-14T05:12:43.340Z,100.00
2023-02-14T05:15:11.217Z,100.00
2023-02-14T05:17:40.130Z,100.00
2023-02-14T05:20:08.818Z,100.00
2023-02-14T05:22:36.549Z,100.00
2023-02-14T05:25:04.240Z,100.00
2023-02-14T05:27:31.855Z,100.00
2023-02-14T05:29:59.452Z,100.00
2023-02-14T05:32:27.057Z,100.00
2023-02-14T05:34:55.971Z,100.00
2023-02-14T05:37:23.588Z,100.00
2023-02-14T05:39:51.129Z,100.00
2023-02-14T05:42:18.722Z,100.00
2023-02-14T05:44:46.329Z,100.00
2023-02-14T05:47:13.921Z,100.00
2023-02-14T05:49:41.619Z,100.00
2023-02-14T05:52:11.194Z,100.00
2023-02-14T05:54:38.813Z,100.00
2023-02-14T05:57:06.664Z,100.00
2023-02-14T05:59:34.236Z,100.00
2023-02-14T06:02:01.885Z,100.00
2023-02-14T06:04:29.516Z,100.00
2023-02-14T06:06:57.113Z,100.00
2023-02-14T06:09:29.584Z,100.00
2023-02-14T06:11:57.235Z,100.00
2023-02-14T06:14:24.885Z,100.00
2023-02-14T06:16:52.693Z,100.00
2023-02-14T06:19:20.312Z,100.00
2023-02-14T06:21:47.981Z,100.00
2023-02-14T06:24:15.647Z,100.00
2023-02-14T06:26:44.572Z,100.00
2023-02-14T06:29:12.143Z,100.00
2023-02-14T06:31:40.041Z,100.00
2023-02-14T06:34:07.708Z,100.00
2023-02-14T06:36:35.442Z,100.00
2023-02-14T06:39:03.117Z,100.00
2023-02-14T06:41:30.822Z,100.00
2023-02-14T06:43:59.731Z,100.00
2023-02-14T06:46:27.427Z,100.00
2023-02-14T06:48:55.107Z,100.00
2023-02-14T06:51:22.710Z,100.00
2023-02-14T06:53:50.260Z,100.00
2023-02-14T06:56:17.984Z,100.00
2023-02-14T06:58:45.633Z,100.00
2023-02-14T07:01:14.615Z,100.00
2023-02-14T07:03:43.538Z,100.00
2023-02-14T07:06:11.223Z,100.00
2023-02-14T07:08:38.923Z,100.00
2023-02-14T07:11:06.655Z,100.00
2023-02-14T07:13:34.513Z,100.00
2023-02-14T07:16:02.190Z,100.00
2023-02-14T07:18:31.184Z,100.00
2023-02-14T07:20:59.131Z,100.00
2023-02-14T07:23:26.908Z,100.00
2023-02-14T07:25:55.777Z,100.00
2023-02-14T07:28:23.742Z,100.00
2023-02-14T07:30:51.413Z,100.00
2023-02-14T07:33:19.237Z,100.00
2023-02-14T07:35:48.196Z,100.00
2023-02-14T07:38:15.821Z,100.00
2023-02-14T07:40:43.401Z,100.00
2023-02-14T07:43:11.094Z,100.00
2023-02-14T07:45:38.734Z,100.00
2023-02-14T07:48:07.283Z,100.00
2023-02-14T07:50:34.905Z,100.00
2023-02-14T07:53:03.941Z,100.00
2023-02-14T07:55:31.529Z,100.00
2023-02-14T07:57:59.125Z,100.00
2023-02-14T08:00:27.357Z,100.00
2023-02-14T08:02:56.078Z,100.00
2023-02-14T08:05:24.067Z,100.00
2023-02-14T08:07:51.758Z,100.00
2023-02-14T08:10:21.010Z,100.00
2023-02-14T08:13:00.810Z,100.00
2023-02-14T08:15:47.605Z,100.00
2023-02-14T08:18:16.179Z,100.00
2023-02-14T08:20:44.124Z,100.00
2023-02-14T08:23:11.796Z,100.00
2023-02-14T08:25:40.930Z,100.00
2023-02-14T08:28:08.530Z,100.00
2023-02-14T08:30:38.030Z,100.00
2023-02-14T08:33:05.743Z,100.00
2023-02-14T08:35:33.579Z,100.00
2023-02-14T08:38:01.539Z,100.00
2023-02-14T08:40:29.401Z,100.00
2023-02-14T08:42:58.357Z,100.00
2023-02-14T08:45:26.431Z,100.00
2023-02-14T08:47:54.260Z,100.00
2023-02-14T08:50:22.226Z,100.00
2023-02-14T08:52:49.886Z,100.00
2023-02-14T08:55:17.573Z,100.00
2023-02-14T08:57:45.306Z,100.00
2023-02-14T09:00:15.563Z,100.00
2023-02-14T09:02:43.201Z,100.00
2023-02-14T09:05:10.865Z,100.00
2023-02-14T09:07:38.736Z,100.00
2023-02-14T09:10:07.875Z,100.00
2023-02-14T09:12:35.647Z,100.00
2023-02-14T09:15:03.228Z,100.00
2023-02-14T09:17:32.141Z,100.00
2023-02-14T09:19:59.710Z,100.00
2023-02-14T09:22:27.297Z,100.00
2023-02-14T09:24:54.904Z,100.00
2023-02-14T09:27:22.520Z,100.00
2023-02-14T09:29:50.127Z,100.00
2023-02-14T09:32:18.823Z,100.00
2023-02-14T09:34:47.810Z,100.00
2023-02-14T09:37:16.120Z,100.00
2023-02-14T09:39:43.766Z,100.00
2023-02-14T09:42:22.480Z,100.00
2023-02-14T09:44:53.688Z,100.00
2023-02-14T09:47:24.238Z,100.00
2023-02-14T09:49:55.754Z,100.00
2023-02-14T09:52:28.526Z,100.00
2023-02-14T09:54:59.097Z,100.00
2023-02-14T09:57:39.940Z,100.00
2023-02-14T10:00:21.325Z,100.00
2023-02-14T10:02:59.240Z,100.00
2023-02-14T10:05:31.296Z,100.00
2023-02-14T10:08:06.239Z,100.00
2023-02-14T10:10:39.728Z,100.00
2023-02-14T10:13:15.105Z,100.00
2023-02-14T10:15:46.088Z,100.00
2023-02-14T10:18:18.986Z,100.00
2023-02-14T10:20:52.443Z,100.00
2023-02-14T10:23:30.777Z,100.00
2023-02-14T10:26:02.655Z,100.00
2023-02-14T10:28:35.712Z,100.00
2023-02-14T10:31:21.139Z,100.00
2023-02-14T10:33:57.273Z,100.00
2023-02-14T10:36:44.393Z,100.00
2023-02-14T10:39:38.266Z,100.00
2023-02-14T10:42:18.194Z,100.00
2023-02-14T10:44:52.706Z,100.00
2023-02-14T10:47:38.659Z,100.00
2023-02-14T10:50:15.979Z,100.00
2023-02-14T10:52:57.209Z,100.00
2023-02-14T10:55:32.622Z,100.00
2023-02-14T10:58:05.024Z,100.00
2023-02-14T11:00:36.792Z,100.00
2023-02-14T11:03:10.746Z,100.00
2023-02-14T11:05:46.199Z,100.00
2023-02-14T11:08:23.808Z,100.00
2023-02-14T11:10:51.758Z,100.00
2023-02-14T11:13:31.118Z,100.00
2023-02-14T11:16:04.166Z,100.00
2023-02-14T11:18:35.770Z,100.00
2023-02-14T11:21:06.548Z,100.00
2023-02-14T11:23:38.171Z,100.00
2023-02-14T11:26:11.119Z,100.00
2023-02-14T11:28:51.255Z,100.00
2023-02-14T11:31:29.821Z,100.00
2023-02-14T11:33:58.632Z,100.00
2023-02-14T11:36:27.379Z,100.00
2023-02-14T11:39:04.197Z,100.00
2023-02-14T11:41:48.492Z,100.00
2023-02-14T11:44:22.458Z,100.00
2023-02-14T11:46:53.489Z,100.00
2023-02-14T11:49:31.108Z,100.00
2023-02-14T11:52:01.431Z,100.00
2023-02-14T11:54:37.107Z,100.00
2023-02-14T11:57:08.545Z,100.00
2023-02-14T11:59:41.825Z,100.00
2023-02-14T12:02:24.473Z,100.00
2023-02-14T12:04:55.657Z,100.00
2023-02-14T12:07:28.761Z,99.28
2023-02-14T12:10:22.748Z,98.07
2023-02-14T12:12:56.670Z,95.46
2023-02-14T12:15:31.790Z,95.41
2023-02-14T12:18:07.666Z,95.21
2023-02-14T12:20:42.619Z,93.96
2023-02-14T12:23:17.989Z,93.47
2023-02-14T12:25:52.360Z,93.57
2023-02-14T12:28:25.818Z,93.43
2023-02-14T12:30:53.534Z,92.79
2023-02-14T12:33:23.559Z,91.35
2023-02-14T12:36:00.696Z,89.33
2023-02-14T12:38:41.800Z,89.07
2023-02-14T12:41:26.069Z,89.65
2023-02-14T12:43:56.106Z,87.96
2023-02-14T12:46:47.852Z,87.99
2023-02-14T12:49:32.615Z,87.90
2023-02-14T12:52:13.284Z,87.64
2023-02-14T12:54:55.472Z,87.27
2023-02-14T12:57:35.837Z,87.59
2023-02-14T13:00:17.562Z,87.43
2023-02-14T13:03:21.870Z,86.81
2023-02-14T13:05:59.176Z,87.31
2023-02-14T13:08:42.160Z,87.84
2023-02-14T13:11:17.676Z,87.53
2023-02-14T13:13:57.157Z,87.80
2023-02-14T13:16:33.517Z,86.80
2023-02-14T13:19:08.004Z,86.14
2023-02-14T13:21:39.585Z,85.56
2023-02-14T13:24:20.990Z,85.14
2023-02-14T13:26:53.825Z,85.25
2023-02-14T13:29:25.560Z,84.43
2023-02-14T13:31:59.229Z,83.14
2023-02-14T13:34:31.757Z,83.26
2023-02-14T13:37:01.628Z,81.85
2023-02-14T13:39:38.277Z,82.25
2023-02-14T13:42:08.011Z,82.44
2023-02-14T13:44:49.051Z,82.46
2023-02-14T13:47:19.627Z,81.91
2023-02-14T13:49:55.474Z,81.68
2023-02-14T13:52:45.691Z,81.24
2023-02-14T13:55:18.806Z,80.62
2023-02-14T13:57:47.590Z,79.34
2023-02-14T14:00:41.957Z,79.30
2023-02-14T14:03:15.067Z,79.31
2023-02-14T14:05:59.463Z,79.31
2023-02-14T14:08:47.931Z,79.87
2023-02-14T14:12:01.160Z,79.71
2023-02-14T14:14:36.194Z,79.39
2023-02-14T14:17:20.541Z,78.92
2023-02-14T14:19:48.787Z,79.00
2023-02-14T14:22:17.663Z,79.76
2023-02-14T14:25:03.865Z,80.25
2023-02-14T14:27:35.918Z,80.13
2023-02-14T14:30:05.941Z,79.90
2023-02-14T14:32:37.245Z,79.72
2023-02-14T14:35:08.196Z,80.04
2023-02-14T14:37:37.345Z,80.61
2023-02-14T14:40:26.480Z,80.82
2023-02-14T14:43:04.613Z,81.06
2023-02-14T14:45:41.612Z,81.57
2023-02-14T14:48:23.325Z,81.82
2023-02-14T14:50:51.166Z,82.02
2023-02-14T14:53:23.630Z,81.37
2023-02-14T14:55:53.258Z,81.64
2023-02-14T14:58:34.183Z,81.95
2023-02-14T15:01:02.625Z,82.52
2023-02-14T15:03:31.961Z,82.44
2023-02-14T15:06:11.264Z,82.94
2023-02-14T15:08:38.888Z,82.82
2023-02-14T15:11:10.522Z,82.68
2023-02-14T15:13:51.270Z,82.56
2023-02-14T15:16:21.585Z,82.83
2023-02-14T15:18:52.201Z,82.95
2023-02-14T15:21:19.983Z,84.14
2023-02-14T15:23:48.954Z,84.34
2023-02-14T15:26:24.828Z,84.03
2023-02-14T15:28:57.511Z,84.56
2023-02-14T15:31:33.035Z,85.22
2023-02-14T15:34:03.139Z,85.80
2023-02-14T15:36:32.330Z,85.83
2023-02-14T15:39:04.694Z,86.29
2023-02-14T15:41:32.355Z,86.50
2023-02-14T15:44:00.442Z,86.78
2023-02-14T15:46:35.283Z,87.31
2023-02-14T15:49:11.060Z,87.67
2023-02-14T15:51:43.208Z,88.40
2023-02-14T15:54:21.929Z,89.08
2023-02-14T15:56:52.688Z,89.31
2023-02-14T15:59:24.175Z,89.73
2023-02-14T16:01:55.928Z,89.92
2023-02-14T16:04:26.903Z,90.08
2023-02-14T16:07:20.559Z,90.75
2023-02-14T16:09:48.925Z,90.68
2023-02-14T16:12:32.304Z,91.24
2023-02-14T16:15:04.502Z,91.89
2023-02-14T16:17:34.531Z,92.48
2023-02-14T16:20:22.737Z,92.83
2023-02-14T16:22:50.723Z,93.07
2023-02-14T16:25:18.537Z,93.49
2023-02-14T16:27:46.465Z,93.74
2023-02-14T16:30:18.576Z,94.20
2023-02-14T16:32:50.486Z,94.55
2023-02-14T16:35:22.466Z,94.72
2023-02-14T16:37:52.368Z,95.15
2023-02-14T16:40:24.524Z,95.66
2023-02-14T16:42:52.346Z,95.75
2023-02-14T16:45:20.683Z,95.93
2023-02-14T16:47:49.131Z,96.35
2023-02-14T16:50:17.672Z,96.87
2023-02-14T16:52:51.958Z,97.37
2023-02-14T16:55:20.925Z,97.80
2023-02-14T16:57:52.646Z,98.37
2023-02-14T17:00:21.654Z,98.18
2023-02-14T17:02:49.513Z,98.83
2023-02-14T17:05:17.159Z,99.06
2023-02-14T17:07:46.374Z,99.48
2023-02-14T17:10:19.040Z,99.79
2023-02-14T17:12:48.951Z,99.83
2023-02-14T17:15:19.724Z,100.00
2023-02-14T17:17:48.926Z,100.00
2023-02-14T17:20:19.409Z,100.00
2023-02-14T17:22:48.769Z,100.00
2023-02-14T17:25:16.530Z,100.00
2023-02-14T17:27:44.559Z,100.00
2023-02-14T17:30:13.517Z,100.00
2023-02-14T17:32:41.638Z,100.00
2023-02-14T17:35:09.887Z,100.00
2023-02-14T17:37:37.938Z,100.00
2023-02-14T17:40:08.859Z,100.00
2023-02-14T17:42:38.628Z,100.00
2023-02-14T17:45:07.600Z,100.00
2023-02-14T17:47:35.612Z,100.00
2023-02-14T17:50:03.943Z,100.00
2023-02-14T17:52:32.187Z,100.00
2023-02-14T17:54:59.975Z,100.00
2023-02-14T17:57:29.052Z,100.00
2023-02-14T17:59:58.093Z,100.00
2023-02-14T18:02:25.906Z,100.00
2023-02-14T18:04:53.553Z,100.00
2023-02-14T18:07:21.248Z,100.00
2023-02-14T18:09:48.881Z,100.00
2023-02-14T18:12:16.688Z,100.00
2023-02-14T18:14:45.649Z,100.00
2023-02-14T18:17:13.584Z,100.00
2023-02-14T18:19:41.472Z,100.00
2023-02-14T18:22:09.199Z,100.00
2023-02-14T18:24:37.536Z,100.00
2023-02-14T18:27:06.028Z,100.00
2023-02-14T18:29:34.709Z,100.00
2023-02-14T18:32:04.810Z,100.00
2023-02-14T18:34:32.813Z,100.00
2023-02-14T18:37:02.683Z,100.00
2023-02-14T18:39:30.299Z,100.00
2023-02-14T18:41:59.986Z,100.00
2023-02-14T18:44:27.935Z,100.00
2023-02-14T18:46:55.646Z,100.00
2023-02-14T18:49:24.872Z,100.00
2023-02-14T18:51:52.460Z,100.00
2023-02-14T18:54:20.173Z,100.00
2023-02-14T18:56:47.839Z,100.00
2023-02-14T18:59:16.651Z,100.00
2023-02-14T19:01:45.754Z,100.00
2023-02-14T19:04:14.366Z,100.00
2023-02-14T19:06:43.838Z,100.00
2023-02-14T19:09:13.166Z,100.00
2023-02-14T19:11:41.615Z,100.00
2023-02-14T19:14:11.088Z,100.00
2023-02-14T19:16:42.038Z,100.00
2023-02-14T19:19:10.196Z,100.00
2023-02-14T19:21:37.829Z,100.00
2023-02-14T19:24:08.106Z,100.00
2023-02-14T19:26:40.160Z,100.00
2023-02-14T19:29:10.533Z,100.00
2023-02-14T19:31:41.148Z,100.00
2023-02-14T19:34:15.587Z,100.00
2023-02-14T19:36:43.188Z,100.00
2023-02-14T19:39:12.684Z,100.00
2023-02-14T19:41:41.193Z,100.00
2023-02-14T19:44:15.458Z,100.00
2023-02-14T19:46:44.556Z,100.00
2023-02-14T19:49:15.484Z,100.00
2023-02-14T19:51:43.528Z,100.00
2023-02-14T19:54:13.481Z,100.00
2023-02-14T19:56:43.569Z,100.00
2023-02-14T19:59:13.294Z,100.00
2023-02-14T20:01:42.489Z,100.00
2023-02-14T20:04:14.629Z,100.00
2023-02-14T20:06:43.380Z,100.00
2023-02-14T20:09:12.644Z,100.00
2023-02-14T20:11:46.569Z,100.00
2023-02-14T20:14:17.444Z,100.00
2023-02-14T20:16:45.886Z,100.00
2023-02-14T20:19:16.562Z,100.00
2023-02-14T20:21:45.308Z,100.00
2023-02-14T20:24:16.850Z,100.00
2023-02-14T20:26:45.617Z,100.00
2023-02-14T20:29:13.268Z,100.00
2023-02-14T20:31:44.297Z,100.00
2023-02-14T20:34:12.152Z,100.00
2023-02-14T20:36:41.181Z,100.00
2023-02-14T20:39:10.606Z,100.00
2023-02-14T20:41:40.114Z,100.00
2023-02-14T20:44:15.457Z,100.00
2023-02-14T20:46:43.039Z,100.00
2023-02-14T20:49:12.255Z,100.00
2023-02-14T20:51:40.682Z,100.00
2023-02-14T20:54:08.366Z,100.00
2023-02-14T20:56:36.152Z,100.00
2023-02-14T20:59:05.063Z,100.00
2023-02-14T21:01:32.718Z,100.00
2023-02-14T21:04:00.552Z,100.00
2023-02-14T21:06:29.889Z,100.00
2023-02-14T21:08:58.040Z,100.00
2023-02-14T21:11:26.830Z,100.00
2023-02-14T21:13:57.541Z,100.00
2023-02-14T21:16:29.332Z,100.00
2023-02-14T21:18:59.474Z,100.00
2023-02-14T21:21:32.291Z,100.00
2023-02-14T21:24:01.623Z,100.00
2023-02-14T21:26:29.890Z,100.00
2023-02-14T21:28:57.572Z,100.00
2023-02-14T21:31:26.778Z,100.00
2023-02-14T21:33:56.564Z,100.00
2023-02-14T21:36:26.490Z,100.00
2023-02-14T21:38:56.826Z,100.00
2023-02-14T21:41:26.193Z,100.00
2023-02-14T21:43:56.286Z,100.00
2023-02-14T21:46:27.464Z,100.00
2023-02-14T21:49:13.203Z,100.00
2023-02-14T21:51:41.642Z,100.00
2023-02-14T21:54:09.877Z,100.00
2023-02-14T21:56:39.042Z,100.00
2023-02-14T21:59:06.641Z,100.00
2023-02-14T22:01:37.357Z,100.00
2023-02-14T22:04:07.747Z,100.00
2023-02-14T22:06:37.968Z,100.00
2023-02-14T22:09:06.222Z,100.00
2023-02-14T22:11:34.328Z,100.00
2023-02-14T22:14:02.039Z,100.00
2023-02-14T22:16:29.731Z,100.00
2023-02-14T22:18:58.853Z,100.00
2023-02-14T22:21:27.570Z,100.00
2023-02-14T22:23:55.969Z,100.00
2023-02-14T22:26:25.741Z,100.00
2023-02-14T22:28:55.833Z,100.00
2023-02-14T22:31:25.042Z,100.00
2023-02-14T22:33:52.641Z,100.00
2023-02-14T22:36:22.110Z,100.00
2023-02-14T22:38:49.922Z,100.00
2023-02-14T22:41:19.793Z,100.00
2023-02-14T22:43:47.712Z,100.00
2023-02-14T22:46:18.003Z,100.00
2023-02-14T22:48:46.032Z,100.00
2023-02-14T22:51:20.750Z,100.00
2023-02-14T22:53:50.070Z,100.00
2023-02-14T22:56:19.855Z,100.00
2023-02-14T22:58:48.188Z,100.00
2023-02-14T23:01:17.223Z,100.00
2023-02-14T23:03:45.041Z,100.00
2023-02-14T23:06:13.418Z,100.00
2023-02-14T23:08:41.461Z,100.00
2023-02-14T23:11:12.907Z,100.00
2023-02-14T23:13:57.974Z,100.00
2023-02-14T23:16:44.069Z,100.00
2023-02-14T23:19:31.880Z,100.00
2023-02-14T23:22:00.607Z,100.00
2023-02-14T23:24:28.170Z,100.00
2023-02-14T23:26:57.234Z,100.00
2023-02-14T23:29:24.845Z,100.00
2023-02-14T23:31:52.529Z,100.00
2023-02-14T23:34:20.333Z,100.00
2023-02-14T23:36:48.098Z,100.00
2023-02-14T23:39:15.708Z,100.00
2023-02-14T23:41:49.303Z,100.00
2023-02-14T23:44:20.609Z,100.00
2023-02-14T23:46:48.860Z,100.00
2023-02-14T23:49:16.927Z,100.00
2023-02-14T23:51:45.656Z,100.00
2023-02-14T23:54:14.222Z,100.00
2023-02-14T23:56:41.984Z,100.00
2023-02-14T23:59:10.293Z,100.00
